Startpagina
METAR-TAF:

METAR-TAF

Vliegvelden :

Rarotonga, Cookeilanden

breedte: 21-12S, lengte: 159-49W, hoogte: 7 m

Actueel weer

Dit bericht is 39 minuten geleden gemaakt, om 00:00 UTC
Wind 6 kt uit het noordoosten
Temperatuur 26°C
Vochtigheid 84%
Druk 1013 hPa
Zicht 10 km of meer
Verspreide wolken op 1500 ft
Gebroken wolken op 5000 ft

METAR: NCRG 260000Z 05006KT 9999 SCT015 BKN050 26/23 Q1013

Tijdstip: 14:39 (00:39 UTC)

Verwachting

Dit bericht is 1 uur en het 37 minuten geleden gemaakt, om 23:02 UTC
Verwachting geldig van 26 om 00 UTC tot 26 om 24 UTC
Wind 7 kt uit het oostzuidoosten
Zicht 10 km of meer
Weinig wolken op 1200 ft
Gebroken wolken op 4000 ft
Kans 30% :
Tijdelijke
van 26 om 06 UTC tot 26 om 12 UTC
Zicht: 7000 m
Gebroken wolken op 1000 ft
Gebroken wolken op 1500 ft
regenbuien

TAF: NCRG 252302Z 2600/2624 12007KT 9999 FEW012 BKN040 PROB30 TEMPO 2606/2612 7000 SHRA BKN010 BKN015

Waarnemingen en weersverwachtingen van meer dan 4000 vliegvelden (METAR en TAF).

De beschikbare stations zijn de gele en rode punten op de kaart.

Ga met uw muis naar het station om de naam te zien.

Klik dan om waarnemingen en weersverwachtingen te zien.

kaart wijzigen: klik op de groene knoppen met een zwart kruis om in te zoomen, op de groene knop met een streepje om uit te zoomen of op de groene pijlen voor aangrenzende kaarten.


METAR-TAF: